sensor_id;sensor_type;location;lat;lon;timestamp;P1;durP1;ratioP1;P2;durP2;ratioP2
54177;SDS011;40085;53.004;6.770;2024-02-23T00:00:38;0.63;;;0.55;;
54177;SDS011;40085;53.004;6.770;2024-02-23T00:03:04;0.57;;;0.57;;
54177;SDS011;40085;53.004;6.770;2024-02-23T00:05:30;0.60;;;0.60;;
54177;SDS011;40085;53.004;6.770;2024-02-23T00:07:55;0.60;;;0.60;;
54177;SDS011;40085;53.004;6.770;2024-02-23T00:10:21;0.90;;;0.60;;
54177;SDS011;40085;53.004;6.770;2024-02-23T00:12:47;1.05;;;0.70;;
54177;SDS011;40085;53.004;6.770;2024-02-23T00:15:12;0.60;;;0.60;;
54177;SDS011;40085;53.004;6.770;2024-02-23T00:17:38;0.60;;;0.60;;
54177;SDS011;40085;53.004;6.770;2024-02-23T00:20:05;0.88;;;0.57;;
54177;SDS011;40085;53.004;6.770;2024-02-23T00:22:35;0.75;;;0.52;;
54177;SDS011;40085;53.004;6.770;2024-02-23T00:25:14;0.70;;;0.70;;
54177;SDS011;40085;53.004;6.770;2024-02-23T00:27:48;2.80;;;1.42;;
54177;SDS011;40085;53.004;6.770;2024-02-23T00:30:13;1.80;;;0.68;;
54177;SDS011;40085;53.004;6.770;2024-02-23T00:32:39;0.70;;;0.70;;
54177;SDS011;40085;53.004;6.770;2024-02-23T00:35:05;1.95;;;0.77;;
54177;SDS011;40085;53.004;6.770;2024-02-23T00:37:31;0.65;;;0.65;;
54177;SDS011;40085;53.004;6.770;2024-02-23T00:40:04;0.52;;;0.52;;
54177;SDS011;40085;53.004;6.770;2024-02-23T00:42:30;0.80;;;0.80;;
54177;SDS011;40085;53.004;6.770;2024-02-23T00:44:56;1.58;;;0.63;;
54177;SDS011;40085;53.004;6.770;2024-02-23T00:47:22;0.77;;;0.70;;
54177;SDS011;40085;53.004;6.770;2024-02-23T00:49:47;0.50;;;0.50;;
54177;SDS011;40085;53.004;6.770;2024-02-23T00:52:14;0.73;;;0.68;;
54177;SDS011;40085;53.004;6.770;2024-02-23T00:54:39;0.65;;;0.65;;
54177;SDS011;40085;53.004;6.770;2024-02-23T00:57:05;0.85;;;0.65;;
54177;SDS011;40085;53.004;6.770;2024-02-23T00:59:31;0.68;;;0.68;;
54177;SDS011;40085;53.004;6.770;2024-02-23T01:01:57;0.60;;;0.60;;
54177;SDS011;40085;53.004;6.770;2024-02-23T01:04:23;0.50;;;0.50;;
54177;SDS011;40085;53.004;6.770;2024-02-23T01:06:49;0.50;;;0.50;;
54177;SDS011;40085;53.004;6.770;2024-02-23T01:09:15;0.40;;;0.40;;
54177;SDS011;40085;53.004;6.770;2024-02-23T01:11:45;0.50;;;0.50;;
54177;SDS011;40085;53.004;6.770;2024-02-23T01:14:11;0.50;;;0.50;;
54177;SDS011;40085;53.004;6.770;2024-02-23T01:16:37;0.50;;;0.50;;
54177;SDS011;40085;53.004;6.770;2024-02-23T01:19:02;0.50;;;0.50;;
54177;SDS011;40085;53.004;6.770;2024-02-23T01:21:28;0.45;;;0.45;;
54177;SDS011;40085;53.004;6.770;2024-02-23T01:23:54;0.50;;;0.50;;
54177;SDS011;40085;53.004;6.770;2024-02-23T01:26:32;0.50;;;0.50;;
54177;SDS011;40085;53.004;6.770;2024-02-23T01:28:58;0.60;;;0.60;;
54177;SDS011;40085;53.004;6.770;2024-02-23T01:31:24;0.60;;;0.60;;
54177;SDS011;40085;53.004;6.770;2024-02-23T01:33:49;0.55;;;0.55;;
54177;SDS011;40085;53.004;6.770;2024-02-23T01:36:16;0.43;;;0.43;;
54177;SDS011;40085;53.004;6.770;2024-02-23T01:38:43;0.50;;;0.50;;
54177;SDS011;40085;53.004;6.770;2024-02-23T01:41:08;0.60;;;0.60;;
54177;SDS011;40085;53.004;6.770;2024-02-23T01:43:36;0.60;;;0.60;;
54177;SDS011;40085;53.004;6.770;2024-02-23T01:46:02;1.05;;;0.70;;
54177;SDS011;40085;53.004;6.770;2024-02-23T01:48:29;0.75;;;0.70;;
54177;SDS011;40085;53.004;6.770;2024-02-23T01:50:56;0.60;;;0.60;;
54177;SDS011;40085;53.004;6.770;2024-02-23T01:53:22;0.90;;;0.75;;
54177;SDS011;40085;53.004;6.770;2024-02-23T01:55:50;0.70;;;0.70;;
54177;SDS011;40085;53.004;6.770;2024-02-23T01:58:16;0.73;;;0.73;;
54177;SDS011;40085;53.004;6.770;2024-02-23T02:00:43;0.63;;;0.63;;
54177;SDS011;40085;53.004;6.770;2024-02-23T02:03:08;0.93;;;0.80;;
54177;SDS011;40085;53.004;6.770;2024-02-23T02:05:35;0.85;;;0.80;;
54177;SDS011;40085;53.004;6.770;2024-02-23T02:08:04;1.05;;;0.70;;
54177;SDS011;40085;53.004;6.770;2024-02-23T02:10:31;1.52;;;0.90;;
54177;SDS011;40085;53.004;6.770;2024-02-23T02:13:03;0.75;;;0.70;;
54177;SDS011;40085;53.004;6.770;2024-02-23T02:15:30;1.27;;;0.93;;
54177;SDS011;40085;53.004;6.770;2024-02-23T02:17:56;1.48;;;1.13;;
54177;SDS011;40085;53.004;6.770;2024-02-23T02:20:23;0.85;;;0.77;;
54177;SDS011;40085;53.004;6.770;2024-02-23T02:22:51;1.67;;;0.95;;
54177;SDS011;40085;53.004;6.770;2024-02-23T02:25:17;0.88;;;0.85;;
54177;SDS011;40085;53.004;6.770;2024-02-23T02:27:49;2.00;;;0.95;;
54177;SDS011;40085;53.004;6.770;2024-02-23T02:30:15;1.52;;;1.05;;
54177;SDS011;40085;53.004;6.770;2024-02-23T02:32:41;2.13;;;1.00;;
54177;SDS011;40085;53.004;6.770;2024-02-23T02:35:07;1.83;;;1.10;;
54177;SDS011;40085;53.004;6.770;2024-02-23T02:37:33;1.30;;;0.88;;
54177;SDS011;40085;53.004;6.770;2024-02-23T02:39:59;0.80;;;0.80;;
54177;SDS011;40085;53.004;6.770;2024-02-23T02:42:24;2.05;;;1.10;;
54177;SDS011;40085;53.004;6.770;2024-02-23T02:44:50;1.00;;;0.85;;
54177;SDS011;40085;53.004;6.770;2024-02-23T02:47:16;1.35;;;1.13;;
54177;SDS011;40085;53.004;6.770;2024-02-23T02:49:42;1.83;;;1.23;;
54177;SDS011;40085;53.004;6.770;2024-02-23T02:52:08;1.85;;;0.95;;
54177;SDS011;40085;53.004;6.770;2024-02-23T02:54:34;1.75;;;0.77;;
54177;SDS011;40085;53.004;6.770;2024-02-23T02:57:00;1.23;;;0.90;;
54177;SDS011;40085;53.004;6.770;2024-02-23T02:59:26;1.38;;;1.05;;
54177;SDS011;40085;53.004;6.770;2024-02-23T03:01:52;1.67;;;0.88;;
54177;SDS011;40085;53.004;6.770;2024-02-23T03:04:18;0.93;;;0.90;;
54177;SDS011;40085;53.004;6.770;2024-02-23T03:06:44;2.15;;;1.20;;
54177;SDS011;40085;53.004;6.770;2024-02-23T03:09:10;1.65;;;1.10;;
54177;SDS011;40085;53.004;6.770;2024-02-23T03:11:36;1.05;;;0.95;;
54177;SDS011;40085;53.004;6.770;2024-02-23T03:14:02;2.30;;;1.30;;
54177;SDS011;40085;53.004;6.770;2024-02-23T03:16:28;3.35;;;1.20;;
54177;SDS011;40085;53.004;6.770;2024-02-23T03:18:56;1.83;;;1.35;;
54177;SDS011;40085;53.004;6.770;2024-02-23T03:21:21;3.15;;;1.58;;
54177;SDS011;40085;53.004;6.770;2024-02-23T03:23:47;2.53;;;1.33;;
54177;SDS011;40085;53.004;6.770;2024-02-23T03:26:26;1.67;;;1.10;;
54177;SDS011;40085;53.004;6.770;2024-02-23T03:28:52;1.58;;;0.90;;
54177;SDS011;40085;53.004;6.770;2024-02-23T03:31:17;1.20;;;1.10;;
54177;SDS011;40085;53.004;6.770;2024-02-23T03:33:43;1.13;;;0.90;;
54177;SDS011;40085;53.004;6.770;2024-02-23T03:36:09;1.60;;;1.20;;
54177;SDS011;40085;53.004;6.770;2024-02-23T03:38:34;2.47;;;1.63;;
54177;SDS011;40085;53.004;6.770;2024-02-23T03:41:00;1.88;;;1.27;;
54177;SDS011;40085;53.004;6.770;2024-02-23T03:43:26;2.10;;;1.13;;
54177;SDS011;40085;53.004;6.770;2024-02-23T03:45:52;1.27;;;1.00;;
54177;SDS011;40085;53.004;6.770;2024-02-23T03:48:18;1.05;;;0.98;;
54177;SDS011;40085;53.004;6.770;2024-02-23T03:50:43;1.98;;;1.00;;
54177;SDS011;40085;53.004;6.770;2024-02-23T03:53:09;2.25;;;1.20;;
54177;SDS011;40085;53.004;6.770;2024-02-23T03:55:35;1.23;;;0.98;;
54177;SDS011;40085;53.004;6.770;2024-02-23T03:58:00;1.30;;;1.17;;
54177;SDS011;40085;53.004;6.770;2024-02-23T04:00:26;1.58;;;1.27;;
54177;SDS011;40085;53.004;6.770;2024-02-23T04:02:52;1.65;;;1.17;;
54177;SDS011;40085;53.004;6.770;2024-02-23T04:05:18;2.22;;;1.10;;
54177;SDS011;40085;53.004;6.770;2024-02-23T04:07:44;2.47;;;1.15;;
54177;SDS011;40085;53.004;6.770;2024-02-23T04:10:10;3.25;;;1.23;;
54177;SDS011;40085;53.004;6.770;2024-02-23T04:12:35;3.83;;;1.60;;
54177;SDS011;40085;53.004;6.770;2024-02-23T04:15:01;2.53;;;1.08;;
54177;SDS011;40085;53.004;6.770;2024-02-23T04:17:26;1.98;;;1.10;;
54177;SDS011;40085;53.004;6.770;2024-02-23T04:19:52;1.67;;;0.90;;
54177;SDS011;40085;53.004;6.770;2024-02-23T04:22:18;3.92;;;1.10;;
54177;SDS011;40085;53.004;6.770;2024-02-23T04:24:43;1.95;;;1.13;;
54177;SDS011;40085;53.004;6.770;2024-02-23T04:27:29;4.78;;;1.60;;
54177;SDS011;40085;53.004;6.770;2024-02-23T04:29:55;1.33;;;0.90;;
54177;SDS011;40085;53.004;6.770;2024-02-23T04:32:20;1.45;;;1.05;;
54177;SDS011;40085;53.004;6.770;2024-02-23T04:34:46;1.77;;;1.00;;
54177;SDS011;40085;53.004;6.770;2024-02-23T04:37:12;1.02;;;0.90;;
54177;SDS011;40085;53.004;6.770;2024-02-23T04:39:37;1.70;;;0.95;;
54177;SDS011;40085;53.004;6.770;2024-02-23T04:42:03;1.80;;;0.82;;
54177;SDS011;40085;53.004;6.770;2024-02-23T04:44:29;1.52;;;0.80;;
54177;SDS011;40085;53.004;6.770;2024-02-23T04:46:55;1.05;;;0.77;;
54177;SDS011;40085;53.004;6.770;2024-02-23T04:49:20;1.52;;;1.20;;
54177;SDS011;40085;53.004;6.770;2024-02-23T04:51:46;1.17;;;0.88;;
54177;SDS011;40085;53.004;6.770;2024-02-23T04:54:12;1.83;;;1.05;;
54177;SDS011;40085;53.004;6.770;2024-02-23T04:56:37;0.90;;;0.73;;
54177;SDS011;40085;53.004;6.770;2024-02-23T04:59:03;1.80;;;1.13;;
54177;SDS011;40085;53.004;6.770;2024-02-23T05:01:29;1.20;;;0.80;;
54177;SDS011;40085;53.004;6.770;2024-02-23T05:04:00;1.10;;;0.80;;
54177;SDS011;40085;53.004;6.770;2024-02-23T05:06:26;1.65;;;0.88;;
54177;SDS011;40085;53.004;6.770;2024-02-23T05:08:52;2.17;;;1.20;;
54177;SDS011;40085;53.004;6.770;2024-02-23T05:11:17;1.02;;;0.93;;
54177;SDS011;40085;53.004;6.770;2024-02-23T05:13:43;1.83;;;1.08;;
54177;SDS011;40085;53.004;6.770;2024-02-23T05:16:09;2.13;;;1.08;;
54177;SDS011;40085;53.004;6.770;2024-02-23T05:18:35;2.15;;;1.17;;
54177;SDS011;40085;53.004;6.770;2024-02-23T05:21:00;1.20;;;1.10;;
54177;SDS011;40085;53.004;6.770;2024-02-23T05:23:26;2.40;;;1.30;;
54177;SDS011;40085;53.004;6.770;2024-02-23T05:25:52;1.80;;;1.40;;
54177;SDS011;40085;53.004;6.770;2024-02-23T05:28:24;1.17;;;1.08;;
54177;SDS011;40085;53.004;6.770;2024-02-23T05:30:50;2.17;;;1.27;;
54177;SDS011;40085;53.004;6.770;2024-02-23T05:33:16;1.95;;;1.65;;
54177;SDS011;40085;53.004;6.770;2024-02-23T05:35:45;2.88;;;1.45;;
54177;SDS011;40085;53.004;6.770;2024-02-23T05:38:13;1.52;;;1.20;;
54177;SDS011;40085;53.004;6.770;2024-02-23T05:40:39;1.50;;;1.02;;
54177;SDS011;40085;53.004;6.770;2024-02-23T05:43:05;1.77;;;1.55;;
54177;SDS011;40085;53.004;6.770;2024-02-23T05:45:31;1.42;;;1.33;;
54177;SDS011;40085;53.004;6.770;2024-02-23T05:47:57;1.55;;;1.40;;
54177;SDS011;40085;53.004;6.770;2024-02-23T05:50:23;2.15;;;1.60;;
54177;SDS011;40085;53.004;6.770;2024-02-23T05:52:48;1.65;;;1.45;;
54177;SDS011;40085;53.004;6.770;2024-02-23T05:55:14;1.75;;;1.55;;
54177;SDS011;40085;53.004;6.770;2024-02-23T05:57:40;1.80;;;1.70;;
54177;SDS011;40085;53.004;6.770;2024-02-23T06:00:06;1.48;;;1.38;;
54177;SDS011;40085;53.004;6.770;2024-02-23T06:02:35;2.00;;;1.45;;
54177;SDS011;40085;53.004;6.770;2024-02-23T06:05:00;2.30;;;1.48;;
54177;SDS011;40085;53.004;6.770;2024-02-23T06:07:26;1.70;;;1.55;;
54177;SDS011;40085;53.004;6.770;2024-02-23T06:09:57;3.70;;;2.05;;
54177;SDS011;40085;53.004;6.770;2024-02-23T06:12:22;1.77;;;1.60;;
54177;SDS011;40085;53.004;6.770;2024-02-23T06:14:50;3.50;;;1.63;;
54177;SDS011;40085;53.004;6.770;2024-02-23T06:17:16;1.58;;;1.23;;
54177;SDS011;40085;53.004;6.770;2024-02-23T06:19:43;1.50;;;1.40;;
54177;SDS011;40085;53.004;6.770;2024-02-23T06:22:08;1.55;;;1.40;;
54177;SDS011;40085;53.004;6.770;2024-02-23T06:24:35;1.63;;;1.52;;
54177;SDS011;40085;53.004;6.770;2024-02-23T06:27:08;2.97;;;1.63;;
54177;SDS011;40085;53.004;6.770;2024-02-23T06:29:35;1.83;;;1.65;;
54177;SDS011;40085;53.004;6.770;2024-02-23T06:32:01;1.67;;;1.58;;
54177;SDS011;40085;53.004;6.770;2024-02-23T06:34:28;1.67;;;1.58;;
54177;SDS011;40085;53.004;6.770;2024-02-23T06:36:53;2.33;;;1.60;;
54177;SDS011;40085;53.004;6.770;2024-02-23T06:39:19;2.30;;;1.92;;
54177;SDS011;40085;53.004;6.770;2024-02-23T06:41:45;2.38;;;1.60;;
54177;SDS011;40085;53.004;6.770;2024-02-23T06:44:10;2.08;;;1.50;;
54177;SDS011;40085;53.004;6.770;2024-02-23T06:46:36;2.80;;;1.55;;
54177;SDS011;40085;53.004;6.770;2024-02-23T06:49:02;3.22;;;1.85;;
54177;SDS011;40085;53.004;6.770;2024-02-23T06:51:29;1.60;;;1.50;;
54177;SDS011;40085;53.004;6.770;2024-02-23T06:53:56;1.40;;;1.30;;
54177;SDS011;40085;53.004;6.770;2024-02-23T06:56:22;1.70;;;1.50;;
54177;SDS011;40085;53.004;6.770;2024-02-23T06:58:47;1.80;;;1.50;;
54177;SDS011;40085;53.004;6.770;2024-02-23T07:01:13;1.88;;;1.63;;
54177;SDS011;40085;53.004;6.770;2024-02-23T07:03:39;2.17;;;1.67;;
54177;SDS011;40085;53.004;6.770;2024-02-23T07:06:06;2.38;;;1.58;;
54177;SDS011;40085;53.004;6.770;2024-02-23T07:08:31;1.80;;;1.52;;
54177;SDS011;40085;53.004;6.770;2024-02-23T07:10:57;2.13;;;1.88;;
54177;SDS011;40085;53.004;6.770;2024-02-23T07:13:23;2.67;;;1.73;;
54177;SDS011;40085;53.004;6.770;2024-02-23T07:15:48;1.42;;;1.33;;
54177;SDS011;40085;53.004;6.770;2024-02-23T07:18:14;2.95;;;1.42;;
54177;SDS011;40085;53.004;6.770;2024-02-23T07:20:41;1.95;;;1.67;;
54177;SDS011;40085;53.004;6.770;2024-02-23T07:23:06;2.38;;;1.75;;
54177;SDS011;40085;53.004;6.770;2024-02-23T07:25:39;1.80;;;1.70;;
54177;SDS011;40085;53.004;6.770;2024-02-23T07:28:19;1.92;;;1.58;;
54177;SDS011;40085;53.004;6.770;2024-02-23T07:30:45;1.63;;;1.50;;
54177;SDS011;40085;53.004;6.770;2024-02-23T07:33:11;2.20;;;1.40;;
54177;SDS011;40085;53.004;6.770;2024-02-23T07:35:37;2.65;;;1.80;;
54177;SDS011;40085;53.004;6.770;2024-02-23T07:38:02;2.90;;;1.40;;
54177;SDS011;40085;53.004;6.770;2024-02-23T07:40:29;3.08;;;1.55;;
54177;SDS011;40085;53.004;6.770;2024-02-23T07:42:57;1.30;;;1.20;;
54177;SDS011;40085;53.004;6.770;2024-02-23T07:45:22;2.08;;;1.40;;
54177;SDS011;40085;53.004;6.770;2024-02-23T07:47:48;1.65;;;1.30;;
54177;SDS011;40085;53.004;6.770;2024-02-23T07:50:13;1.85;;;1.50;;
54177;SDS011;40085;53.004;6.770;2024-02-23T07:52:40;1.67;;;1.10;;
54177;SDS011;40085;53.004;6.770;2024-02-23T07:55:06;2.03;;;1.30;;
54177;SDS011;40085;53.004;6.770;2024-02-23T07:57:33;1.17;;;1.00;;
54177;SDS011;40085;53.004;6.770;2024-02-23T07:59:59;0.80;;;0.80;;
54177;SDS011;40085;53.004;6.770;2024-02-23T08:02:25;2.00;;;1.50;;
54177;SDS011;40085;53.004;6.770;2024-02-23T08:04:51;1.38;;;0.93;;
54177;SDS011;40085;53.004;6.770;2024-02-23T08:07:17;1.38;;;1.10;;
54177;SDS011;40085;53.004;6.770;2024-02-23T08:09:43;1.98;;;1.00;;
54177;SDS011;40085;53.004;6.770;2024-02-23T08:12:09;0.95;;;0.95;;
54177;SDS011;40085;53.004;6.770;2024-02-23T08:14:36;1.48;;;0.90;;
54177;SDS011;40085;53.004;6.770;2024-02-23T08:17:02;1.33;;;0.77;;
54177;SDS011;40085;53.004;6.770;2024-02-23T08:19:27;1.30;;;0.90;;
54177;SDS011;40085;53.004;6.770;2024-02-23T08:21:53;1.17;;;0.82;;
54177;SDS011;40085;53.004;6.770;2024-02-23T08:24:25;1.10;;;0.90;;
54177;SDS011;40085;53.004;6.770;2024-02-23T08:27:04;2.80;;;1.17;;
54177;SDS011;40085;53.004;6.770;2024-02-23T08:29:30;0.80;;;0.80;;
54177;SDS011;40085;53.004;6.770;2024-02-23T08:31:55;1.40;;;1.10;;
54177;SDS011;40085;53.004;6.770;2024-02-23T08:34:21;1.08;;;0.93;;
54177;SDS011;40085;53.004;6.770;2024-02-23T08:36:46;1.58;;;1.10;;
54177;SDS011;40085;53.004;6.770;2024-02-23T08:39:12;1.50;;;0.90;;
54177;SDS011;40085;53.004;6.770;2024-02-23T08:41:38;0.98;;;0.73;;
54177;SDS011;40085;53.004;6.770;2024-02-23T08:44:04;0.90;;;0.77;;
54177;SDS011;40085;53.004;6.770;2024-02-23T08:46:29;1.20;;;0.85;;
54177;SDS011;40085;53.004;6.770;2024-02-23T08:48:55;1.38;;;1.02;;
54177;SDS011;40085;53.004;6.770;2024-02-23T08:51:21;1.13;;;1.02;;
54177;SDS011;40085;53.004;6.770;2024-02-23T08:53:46;0.82;;;0.82;;
54177;SDS011;40085;53.004;6.770;2024-02-23T08:56:12;1.27;;;1.08;;
54177;SDS011;40085;53.004;6.770;2024-02-23T08:58:45;0.80;;;0.80;;
54177;SDS011;40085;53.004;6.770;2024-02-23T09:01:17;0.80;;;0.80;;
54177;SDS011;40085;53.004;6.770;2024-02-23T09:03:44;0.90;;;0.75;;
54177;SDS011;40085;53.004;6.770;2024-02-23T09:06:10;2.38;;;1.17;;
54177;SDS011;40085;53.004;6.770;2024-02-23T09:08:35;0.77;;;0.70;;
54177;SDS011;40085;53.004;6.770;2024-02-23T09:11:01;1.17;;;0.98;;
54177;SDS011;40085;53.004;6.770;2024-02-23T09:13:27;0.73;;;0.73;;
54177;SDS011;40085;53.004;6.770;2024-02-23T09:15:55;0.90;;;0.90;;
54177;SDS011;40085;53.004;6.770;2024-02-23T09:18:21;0.73;;;0.73;;
54177;SDS011;40085;53.004;6.770;2024-02-23T09:20:48;1.50;;;0.93;;
54177;SDS011;40085;53.004;6.770;2024-02-23T09:23:17;1.88;;;1.20;;
54177;SDS011;40085;53.004;6.770;2024-02-23T09:25:42;0.98;;;0.80;;
54177;SDS011;40085;53.004;6.770;2024-02-23T09:28:17;1.88;;;1.13;;
54177;SDS011;40085;53.004;6.770;2024-02-23T09:30:43;0.82;;;0.75;;
54177;SDS011;40085;53.004;6.770;2024-02-23T09:33:09;1.25;;;0.85;;
54177;SDS011;40085;53.004;6.770;2024-02-23T09:35:37;1.33;;;0.85;;
54177;SDS011;40085;53.004;6.770;2024-02-23T09:38:03;0.60;;;0.60;;
54177;SDS011;40085;53.004;6.770;2024-02-23T09:40:32;0.90;;;0.90;;
54177;SDS011;40085;53.004;6.770;2024-02-23T09:42:58;0.60;;;0.60;;
54177;SDS011;40085;53.004;6.770;2024-02-23T09:45:24;0.90;;;0.90;;
54177;SDS011;40085;53.004;6.770;2024-02-23T09:47:57;0.70;;;0.70;;
54177;SDS011;40085;53.004;6.770;2024-02-23T09:50:24;1.50;;;1.10;;
54177;SDS011;40085;53.004;6.770;2024-02-23T09:52:50;1.00;;;1.00;;
54177;SDS011;40085;53.004;6.770;2024-02-23T09:55:16;0.70;;;0.70;;
54177;SDS011;40085;53.004;6.770;2024-02-23T09:57:44;1.10;;;0.90;;
54177;SDS011;40085;53.004;6.770;2024-02-23T10:00:24;1.40;;;0.90;;
54177;SDS011;40085;53.004;6.770;2024-02-23T10:02:52;1.15;;;0.85;;
54177;SDS011;40085;53.004;6.770;2024-02-23T10:05:20;1.95;;;1.02;;
54177;SDS011;40085;53.004;6.770;2024-02-23T10:07:54;0.90;;;0.90;;
54177;SDS011;40085;53.004;6.770;2024-02-23T10:10:32;0.55;;;0.55;;
54177;SDS011;40085;53.004;6.770;2024-02-23T10:13:02;0.60;;;0.60;;
54177;SDS011;40085;53.004;6.770;2024-02-23T10:15:30;0.73;;;0.68;;
54177;SDS011;40085;53.004;6.770;2024-02-23T10:18:01;0.80;;;0.80;;
54177;SDS011;40085;53.004;6.770;2024-02-23T10:20:27;0.85;;;0.85;;
54177;SDS011;40085;53.004;6.770;2024-02-23T10:22:53;0.75;;;0.75;;
54177;SDS011;40085;53.004;6.770;2024-02-23T10:25:19;0.77;;;0.70;;
54177;SDS011;40085;53.004;6.770;2024-02-23T10:27:45;0.95;;;0.73;;
54177;SDS011;40085;53.004;6.770;2024-02-23T10:30:11;0.98;;;0.75;;
54177;SDS011;40085;53.004;6.770;2024-02-23T10:32:40;0.75;;;0.75;;
54177;SDS011;40085;53.004;6.770;2024-02-23T10:35:15;1.05;;;0.65;;
54177;SDS011;40085;53.004;6.770;2024-02-23T10:37:42;0.70;;;0.70;;
54177;SDS011;40085;53.004;6.770;2024-02-23T10:40:13;1.30;;;0.75;;
54177;SDS011;40085;53.004;6.770;2024-02-23T10:42:43;1.77;;;0.90;;
54177;SDS011;40085;53.004;6.770;2024-02-23T10:45:24;1.30;;;0.75;;
54177;SDS011;40085;53.004;6.770;2024-02-23T10:47:56;0.82;;;0.82;;
54177;SDS011;40085;53.004;6.770;2024-02-23T10:50:23;1.10;;;0.82;;
54177;SDS011;40085;53.004;6.770;2024-02-23T10:52:52;1.00;;;0.80;;
54177;SDS011;40085;53.004;6.770;2024-02-23T10:55:19;1.67;;;1.08;;
54177;SDS011;40085;53.004;6.770;2024-02-23T10:57:48;1.00;;;0.90;;
54177;SDS011;40085;53.004;6.770;2024-02-23T11:00:23;1.05;;;0.80;;
54177;SDS011;40085;53.004;6.770;2024-02-23T11:02:51;0.93;;;0.90;;
54177;SDS011;40085;53.004;6.770;2024-02-23T11:05:19;1.40;;;1.02;;
54177;SDS011;40085;53.004;6.770;2024-02-23T11:07:46;0.90;;;0.90;;
54177;SDS011;40085;53.004;6.770;2024-02-23T11:10:14;1.13;;;0.90;;
54177;SDS011;40085;53.004;6.770;2024-02-23T11:12:41;0.75;;;0.75;;
54177;SDS011;40085;53.004;6.770;2024-02-23T11:15:07;0.60;;;0.60;;
54177;SDS011;40085;53.004;6.770;2024-02-23T11:17:33;0.82;;;0.80;;
54177;SDS011;40085;53.004;6.770;2024-02-23T11:20:03;0.77;;;0.70;;
54177;SDS011;40085;53.004;6.770;2024-02-23T11:22:31;1.33;;;0.80;;
54177;SDS011;40085;53.004;6.770;2024-02-23T11:25:04;0.90;;;0.90;;
54177;SDS011;40085;53.004;6.770;2024-02-23T11:27:35;1.13;;;0.82;;
54177;SDS011;40085;53.004;6.770;2024-02-23T11:30:09;0.65;;;0.63;;
54177;SDS011;40085;53.004;6.770;2024-02-23T11:32:43;1.00;;;0.80;;
54177;SDS011;40085;53.004;6.770;2024-02-23T11:35:12;1.08;;;0.73;;
54177;SDS011;40085;53.004;6.770;2024-02-23T11:37:47;0.77;;;0.70;;
54177;SDS011;40085;53.004;6.770;2024-02-23T11:40:14;0.88;;;0.80;;
54177;SDS011;40085;53.004;6.770;2024-02-23T13:13:48;0.85;;;0.85;;
54177;SDS011;40085;53.004;6.770;2024-02-23T13:16:27;1.55;;;1.00;;
54177;SDS011;40085;53.004;6.770;2024-02-23T13:18:53;0.93;;;0.93;;
54177;SDS011;40085;53.004;6.770;2024-02-23T13:21:19;1.67;;;1.15;;
54177;SDS011;40085;53.004;6.770;2024-02-23T13:23:44;1.08;;;0.88;;
54177;SDS011;40085;53.004;6.770;2024-02-23T13:26:10;0.80;;;0.80;;
54177;SDS011;40085;53.004;6.770;2024-02-23T13:28:39;1.13;;;0.80;;
54177;SDS011;40085;53.004;6.770;2024-02-23T13:31:06;1.20;;;0.70;;
54177;SDS011;40085;53.004;6.770;2024-02-23T13:33:32;0.70;;;0.70;;
54177;SDS011;40085;53.004;6.770;2024-02-23T13:35:58;0.70;;;0.70;;
54177;SDS011;40085;53.004;6.770;2024-02-23T13:38:24;1.08;;;0.90;;
54177;SDS011;40085;53.004;6.770;2024-02-23T13:40:49;1.00;;;0.90;;
54177;SDS011;40085;53.004;6.770;2024-02-23T13:43:15;1.52;;;0.93;;
54177;SDS011;40085;53.004;6.770;2024-02-23T13:45:51;1.70;;;0.98;;
54177;SDS011;40085;53.004;6.770;2024-02-23T13:48:17;1.85;;;0.80;;
54177;SDS011;40085;53.004;6.770;2024-02-23T13:50:45;2.08;;;1.05;;
54177;SDS011;40085;53.004;6.770;2024-02-23T13:53:11;1.15;;;0.88;;
54177;SDS011;40085;53.004;6.770;2024-02-23T13:55:38;0.90;;;0.73;;
54177;SDS011;40085;53.004;6.770;2024-02-23T13:58:09;0.75;;;0.75;;
54177;SDS011;40085;53.004;6.770;2024-02-23T14:00:35;0.73;;;0.73;;
54177;SDS011;40085;53.004;6.770;2024-02-23T14:03:01;0.75;;;0.75;;
54177;SDS011;40085;53.004;6.770;2024-02-23T14:05:27;0.80;;;0.80;;
54177;SDS011;40085;53.004;6.770;2024-02-23T14:07:53;1.13;;;0.82;;
54177;SDS011;40085;53.004;6.770;2024-02-23T14:10:19;0.98;;;0.80;;
54177;SDS011;40085;53.004;6.770;2024-02-23T14:12:51;0.80;;;0.80;;
54177;SDS011;40085;53.004;6.770;2024-02-23T14:15:17;1.13;;;0.88;;
54177;SDS011;40085;53.004;6.770;2024-02-23T14:17:43;0.80;;;0.70;;
54177;SDS011;40085;53.004;6.770;2024-02-23T14:20:11;0.80;;;0.80;;
54177;SDS011;40085;53.004;6.770;2024-02-23T14:22:37;0.82;;;0.82;;
54177;SDS011;40085;53.004;6.770;2024-02-23T14:25:03;0.85;;;0.80;;
54177;SDS011;40085;53.004;6.770;2024-02-23T14:27:29;1.60;;;0.93;;
54177;SDS011;40085;53.004;6.770;2024-02-23T14:29:54;1.25;;;1.00;;
54177;SDS011;40085;53.004;6.770;2024-02-23T14:32:21;0.85;;;0.80;;
54177;SDS011;40085;53.004;6.770;2024-02-23T14:34:47;0.70;;;0.70;;
54177;SDS011;40085;53.004;6.770;2024-02-23T14:37:13;0.63;;;0.63;;
54177;SDS011;40085;53.004;6.770;2024-02-23T14:39:39;1.65;;;0.65;;
54177;SDS011;40085;53.004;6.770;2024-02-23T14:42:04;0.75;;;0.60;;
54177;SDS011;40085;53.004;6.770;2024-02-23T14:44:30;0.73;;;0.73;;
54177;SDS011;40085;53.004;6.770;2024-02-23T14:46:56;1.13;;;0.80;;
54177;SDS011;40085;53.004;6.770;2024-02-23T14:49:22;0.70;;;0.70;;
54177;SDS011;40085;53.004;6.770;2024-02-23T14:51:48;0.70;;;0.70;;
54177;SDS011;40085;53.004;6.770;2024-02-23T14:54:13;0.73;;;0.73;;
54177;SDS011;40085;53.004;6.770;2024-02-23T14:56:39;2.20;;;1.20;;
54177;SDS011;40085;53.004;6.770;2024-02-23T14:59:06;1.15;;;0.85;;
54177;SDS011;40085;53.004;6.770;2024-02-23T15:01:37;1.05;;;0.90;;
54177;SDS011;40085;53.004;6.770;2024-02-23T15:04:05;0.70;;;0.70;;
54177;SDS011;40085;53.004;6.770;2024-02-23T15:06:31;0.98;;;0.95;;
54177;SDS011;40085;53.004;6.770;2024-02-23T15:08:57;1.25;;;0.90;;
54177;SDS011;40085;53.004;6.770;2024-02-23T15:11:23;1.85;;;1.02;;
54177;SDS011;40085;53.004;6.770;2024-02-23T15:13:49;0.82;;;0.82;;
54177;SDS011;40085;53.004;6.770;2024-02-23T15:16:26;2.20;;;0.90;;
54177;SDS011;40085;53.004;6.770;2024-02-23T15:18:53;0.60;;;0.60;;
54177;SDS011;40085;53.004;6.770;2024-02-23T15:21:19;0.70;;;0.68;;
54177;SDS011;40085;53.004;6.770;2024-02-23T15:23:45;1.73;;;0.75;;
54177;SDS011;40085;53.004;6.770;2024-02-23T15:26:11;1.10;;;0.82;;
54177;SDS011;40085;53.004;6.770;2024-02-23T15:28:37;0.80;;;0.80;;
54177;SDS011;40085;53.004;6.770;2024-02-23T15:31:03;0.68;;;0.68;;
54177;SDS011;40085;53.004;6.770;2024-02-23T15:33:29;0.75;;;0.75;;
54177;SDS011;40085;53.004;6.770;2024-02-23T15:35:55;1.02;;;0.80;;
54177;SDS011;40085;53.004;6.770;2024-02-23T15:38:21;0.70;;;0.70;;
54177;SDS011;40085;53.004;6.770;2024-02-23T15:40:47;1.00;;;0.90;;
54177;SDS011;40085;53.004;6.770;2024-02-23T15:43:13;1.17;;;0.80;;
54177;SDS011;40085;53.004;6.770;2024-02-23T15:45:41;0.93;;;0.68;;
54177;SDS011;40085;53.004;6.770;2024-02-23T15:48:09;1.20;;;0.80;;
54177;SDS011;40085;53.004;6.770;2024-02-23T15:50:34;0.70;;;0.70;;
54177;SDS011;40085;53.004;6.770;2024-02-23T15:53:00;1.02;;;0.98;;
54177;SDS011;40085;53.004;6.770;2024-02-23T15:55:29;0.70;;;0.70;;
54177;SDS011;40085;53.004;6.770;2024-02-23T15:57:55;2.10;;;0.90;;
54177;SDS011;40085;53.004;6.770;2024-02-23T16:00:21;1.08;;;0.90;;
54177;SDS011;40085;53.004;6.770;2024-02-23T16:02:46;2.25;;;1.20;;
54177;SDS011;40085;53.004;6.770;2024-02-23T16:05:12;0.82;;;0.82;;
54177;SDS011;40085;53.004;6.770;2024-02-23T16:07:37;0.93;;;0.80;;
54177;SDS011;40085;53.004;6.770;2024-02-23T16:10:03;1.35;;;0.90;;
54177;SDS011;40085;53.004;6.770;2024-02-23T16:12:32;0.70;;;0.60;;
54177;SDS011;40085;53.004;6.770;2024-02-23T16:15:11;1.00;;;0.90;;
54177;SDS011;40085;53.004;6.770;2024-02-23T16:17:37;1.67;;;0.70;;